createdAt,value
2023-06-26T00:01:37.159Z,77.47
2023-06-26T00:04:09.074Z,77.61
2023-06-26T00:06:40.587Z,77.59
2023-06-26T00:09:12.594Z,77.74
2023-06-26T00:11:44.403Z,77.75
2023-06-26T00:14:15.890Z,77.95
2023-06-26T00:16:47.721Z,77.50
2023-06-26T00:19:19.216Z,77.46
2023-06-26T00:21:51.022Z,77.97
2023-06-26T00:24:22.509Z,78.52
2023-06-26T00:26:54.413Z,77.92
2023-06-26T00:29:25.892Z,77.77
2023-06-26T00:31:57.649Z,77.45
2023-06-26T00:34:30.520Z,78.35
2023-06-26T00:37:02.323Z,78.63
2023-06-26T00:39:33.820Z,78.60
2023-06-26T00:42:05.643Z,78.75
2023-06-26T00:44:39.247Z,79.41
2023-06-26T00:47:10.736Z,79.44
2023-06-26T00:49:42.403Z,80.21
2023-06-26T00:52:13.950Z,80.57
2023-06-26T00:54:45.810Z,80.74
2023-06-26T00:57:17.305Z,80.57
2023-06-26T00:59:49.118Z,80.97
2023-06-26T01:02:20.642Z,81.20
2023-06-26T01:04:52.497Z,80.43
2023-06-26T01:07:24.134Z,80.10
2023-06-26T01:09:56.030Z,79.89
2023-06-26T01:12:27.521Z,80.01
2023-06-26T01:14:59.333Z,80.63
2023-06-26T01:17:31.268Z,80.54
2023-06-26T01:20:02.781Z,80.17
2023-06-26T01:22:34.679Z,79.66
2023-06-26T01:25:06.174Z,80.73
2023-06-26T01:27:37.695Z,80.73
2023-06-26T01:30:09.196Z,80.80
2023-06-26T01:32:41.124Z,80.31
2023-06-26T01:35:12.644Z,78.92
2023-06-26T01:37:44.339Z,79.21
2023-06-26T01:40:15.822Z,79.87
2023-06-26T01:42:47.778Z,80.96
2023-06-26T01:45:19.635Z,81.20
2023-06-26T01:47:51.365Z,81.11
2023-06-26T01:50:23.367Z,81.54
2023-06-26T01:52:54.857Z,80.99
2023-06-26T01:55:26.364Z,81.54
2023-06-26T01:57:57.874Z,81.09
2023-06-26T02:00:29.386Z,82.15
2023-06-26T02:03:00.993Z,81.60
2023-06-26T02:05:32.929Z,81.56
2023-06-26T02:08:04.449Z,82.08
2023-06-26T02:10:36.371Z,81.68
2023-06-26T02:13:08.043Z,81.75
2023-06-26T02:15:39.857Z,81.38
2023-06-26T02:18:11.667Z,81.78
2023-06-26T02:20:43.160Z,81.74
2023-06-26T02:23:14.972Z,81.80
2023-06-26T02:25:46.486Z,82.19
2023-06-26T02:28:18.301Z,81.67
2023-06-26T02:30:49.913Z,81.59
2023-06-26T02:33:21.712Z,82.12
2023-06-26T02:35:53.201Z,81.69
2023-06-26T02:38:25.119Z,82.14
2023-06-26T02:40:56.607Z,81.97
2023-06-26T02:43:28.415Z,81.85
2023-06-26T02:46:00.186Z,81.65
2023-06-26T02:48:31.800Z,82.58
2023-06-26T02:51:03.674Z,82.51
2023-06-26T02:53:35.187Z,82.87
2023-06-26T02:56:07.137Z,83.75
2023-06-26T02:58:38.642Z,83.46
2023-06-26T03:01:10.658Z,83.23
2023-06-26T03:03:42.336Z,82.69
2023-06-26T03:06:14.034Z,82.56
2023-06-26T03:08:45.511Z,82.68
2023-06-26T03:11:16.998Z,82.83
2023-06-26T03:13:48.503Z,82.38
2023-06-26T03:16:20.350Z,82.48
2023-06-26T03:18:51.994Z,82.29
2023-06-26T03:21:23.497Z,82.62
2023-06-26T03:23:55.375Z,82.69
2023-06-26T03:26:26.863Z,82.10
2023-06-26T03:28:58.724Z,81.80
2023-06-26T03:31:30.304Z,81.71
2023-06-26T03:34:02.191Z,81.07
2023-06-26T03:36:33.684Z,80.55
2023-06-26T03:39:05.498Z,79.89
2023-06-26T03:41:37.027Z,79.46
2023-06-26T03:44:08.786Z,78.92
2023-06-26T03:46:40.765Z,77.59
2023-06-26T03:49:12.313Z,77.30
2023-06-26T03:51:44.390Z,76.73
2023-06-26T03:54:15.874Z,75.92
2023-06-26T03:56:47.773Z,75.24
2023-06-26T03:59:19.268Z,74.77
2023-06-26T04:01:53.762Z,74.24
2023-06-26T04:04:25.438Z,73.58
2023-06-26T04:06:57.036Z,74.17
2023-06-26T04:09:28.540Z,74.04
2023-06-26T04:12:00.359Z,73.47
2023-06-26T04:14:32.156Z,73.83
2023-06-26T04:17:03.987Z,73.63
2023-06-26T04:19:37.196Z,73.61
2023-06-26T04:22:08.969Z,73.59
2023-06-26T04:24:40.771Z,73.56
2023-06-26T04:27:12.273Z,72.63
2023-06-26T04:29:44.151Z,72.50
2023-06-26T04:32:15.668Z,71.56
2023-06-26T04:34:47.498Z,70.99
2023-06-26T04:37:18.991Z,70.35
2023-06-26T04:39:50.794Z,70.03
2023-06-26T04:42:22.717Z,69.67
2023-06-26T04:44:54.538Z,68.75
2023-06-26T04:47:26.244Z,68.72
2023-06-26T04:49:57.786Z,68.28
2023-06-26T04:52:29.594Z,68.53
2023-06-26T04:55:01.090Z,68.14
2023-06-26T04:57:32.923Z,66.22
2023-06-26T05:00:04.630Z,63.95
2023-06-26T05:02:36.493Z,64.94
2023-06-26T05:05:08.062Z,62.00
2023-06-26T05:07:39.733Z,61.29
2023-06-26T05:10:11.242Z,61.05
2023-06-26T05:12:42.906Z,61.15
2023-06-26T05:15:14.674Z,61.13
2023-06-26T05:17:46.558Z,62.95
2023-06-26T05:20:18.371Z,62.20
2023-06-26T05:22:49.870Z,62.40
2023-06-26T05:25:21.447Z,62.14
2023-06-26T05:27:53.116Z,63.61
2023-06-26T05:30:24.956Z,62.48
2023-06-26T05:32:56.646Z,62.92
2023-06-26T05:35:28.520Z,63.10
2023-06-26T05:38:00.043Z,62.58
2023-06-26T05:40:31.838Z,62.84
2023-06-26T05:43:03.353Z,62.92
2023-06-26T05:45:35.151Z,62.71
2023-06-26T05:48:07.070Z,60.78
2023-06-26T05:50:39.257Z,59.89
2023-06-26T05:53:11.068Z,57.96
2023-06-26T05:55:42.576Z,58.20
2023-06-26T05:58:14.249Z,56.95
2023-06-26T06:00:45.742Z,57.19
2023-06-26T06:03:17.278Z,57.02
2023-06-26T06:05:48.806Z,56.76
2023-06-26T06:08:20.632Z,54.93
2023-06-26T06:10:52.114Z,55.74
2023-06-26T06:13:23.919Z,55.58
2023-06-26T06:15:55.765Z,56.20
2023-06-26T06:18:27.592Z,56.00
2023-06-26T06:20:59.091Z,55.91
2023-06-26T06:23:30.598Z,55.51
2023-06-26T06:26:02.616Z,55.67
2023-06-26T06:28:34.102Z,55.52
2023-06-26T06:31:05.766Z,55.88
2023-06-26T06:33:37.297Z,54.58
2023-06-26T06:36:08.812Z,54.48
2023-06-26T06:38:40.298Z,54.34
2023-06-26T06:41:12.108Z,53.13
2023-06-26T06:43:43.810Z,54.36
2023-06-26T06:46:15.692Z,53.01
2023-06-26T06:48:47.479Z,53.43
2023-06-26T06:51:18.995Z,53.06
2023-06-26T06:53:50.696Z,52.25
2023-06-26T06:56:22.197Z,51.65
2023-06-26T06:58:54.034Z,51.07
2023-06-26T07:01:25.541Z,50.14
2023-06-26T07:03:57.541Z,49.93
2023-06-26T07:06:29.121Z,50.50
2023-06-26T07:09:00.921Z,50.50
2023-06-26T07:11:32.438Z,51.14
2023-06-26T07:14:04.301Z,50.29
2023-06-26T07:16:36.015Z,48.17
2023-06-26T07:19:07.576Z,48.00
2023-06-26T07:21:39.158Z,50.47
2023-06-26T07:24:10.712Z,47.08
2023-06-26T07:26:45.577Z,46.51
2023-06-26T07:29:18.332Z,46.71
2023-06-26T07:31:50.428Z,45.33
2023-06-26T07:34:21.943Z,46.35
2023-06-26T07:36:53.596Z,45.20
2023-06-26T07:39:25.086Z,45.93
2023-06-26T07:41:56.724Z,45.09
2023-06-26T07:44:28.356Z,46.31
2023-06-26T07:46:59.966Z,45.13
2023-06-26T07:49:31.515Z,44.43
2023-06-26T07:52:02.998Z,46.03
2023-06-26T07:54:34.618Z,43.91
2023-06-26T07:57:06.127Z,42.77
2023-06-26T07:59:37.841Z,43.69
2023-06-26T08:02:09.344Z,43.85
2023-06-26T08:04:41.224Z,42.06
2023-06-26T08:07:12.846Z,43.20
2023-06-26T08:09:44.509Z,42.48
2023-06-26T08:12:16.041Z,43.57
2023-06-26T08:14:47.748Z,43.34
2023-06-26T08:17:19.613Z,41.71
2023-06-26T08:19:51.155Z,42.02
2023-06-26T08:22:22.934Z,42.11
2023-06-26T08:24:54.417Z,39.08
2023-06-26T08:27:26.214Z,41.27
2023-06-26T08:29:57.720Z,39.77
2023-06-26T08:32:29.452Z,40.64
2023-06-26T08:35:00.950Z,41.31
2023-06-26T08:37:32.445Z,39.64
2023-06-26T08:40:04.138Z,40.36
2023-06-26T08:42:35.946Z,41.58
2023-06-26T08:45:07.473Z,39.02
2023-06-26T08:47:39.067Z,38.17
2023-06-26T08:50:10.979Z,37.92
2023-06-26T08:52:42.569Z,39.25
2023-06-26T08:55:14.277Z,38.98
2023-06-26T08:57:47.734Z,38.00
2023-06-26T09:00:20.011Z,38.16
2023-06-26T09:02:51.742Z,37.79
2023-06-26T09:05:23.396Z,37.53
2023-06-26T09:07:57.225Z,37.84
2023-06-26T09:10:30.291Z,37.81
2023-06-26T09:13:02.275Z,36.87
2023-06-26T09:15:33.797Z,35.83
2023-06-26T09:18:05.414Z,35.87
2023-06-26T09:20:37.282Z,36.27
2023-06-26T09:23:09.540Z,36.20
2023-06-26T09:25:42.526Z,35.92
2023-06-26T09:28:14.709Z,36.40
2023-06-26T09:30:46.208Z,35.86
2023-06-26T09:33:17.769Z,35.93
2023-06-26T09:35:49.291Z,34.58
2023-06-26T09:38:20.994Z,34.30
2023-06-26T09:40:52.545Z,35.56
2023-06-26T09:43:24.358Z,34.56
2023-06-26T09:45:56.060Z,34.66
2023-06-26T09:48:27.596Z,34.48
2023-06-26T09:51:12.116Z,33.63
2023-06-26T09:53:45.354Z,33.71
2023-06-26T09:56:17.145Z,34.90
2023-06-26T09:58:48.663Z,34.93
2023-06-26T10:01:20.593Z,34.33
2023-06-26T10:03:52.262Z,34.43
2023-06-26T10:06:24.197Z,35.05
2023-06-26T10:08:55.927Z,35.02
2023-06-26T10:11:27.753Z,34.50
2023-06-26T10:14:12.197Z,33.93
2023-06-26T10:16:47.800Z,34.08
2023-06-26T10:19:19.680Z,33.44
2023-06-26T10:21:51.163Z,33.31
2023-06-26T10:24:22.847Z,33.80
2023-06-26T10:26:54.398Z,33.15
2023-06-26T10:29:25.900Z,31.53
2023-06-26T10:31:57.771Z,32.49
2023-06-26T10:34:29.321Z,31.77
2023-06-26T10:37:01.185Z,32.51
2023-06-26T10:39:32.698Z,32.50
2023-06-26T10:42:05.554Z,33.22
2023-06-26T10:44:37.567Z,32.85
2023-06-26T10:47:09.484Z,34.38
2023-06-26T10:49:40.971Z,32.61
2023-06-26T10:52:12.813Z,34.46
2023-06-26T10:54:44.329Z,33.35
2023-06-26T10:57:16.229Z,32.27
2023-06-26T10:59:47.725Z,32.42
2023-06-26T11:02:19.562Z,31.13
2023-06-26T11:04:51.443Z,32.36
2023-06-26T11:07:23.006Z,32.96
2023-06-26T11:09:54.716Z,32.23
2023-06-26T11:12:26.208Z,30.78
2023-06-26T11:14:57.920Z,32.17
2023-06-26T11:17:29.506Z,32.26
2023-06-26T11:20:03.704Z,30.58
2023-06-26T11:22:36.181Z,32.28
2023-06-26T11:25:08.083Z,30.80
2023-06-26T11:27:39.583Z,31.85
2023-06-26T11:30:11.570Z,31.81
2023-06-26T11:32:43.124Z,31.31
2023-06-26T11:35:15.016Z,31.87
2023-06-26T11:37:46.881Z,32.27
2023-06-26T11:40:18.698Z,32.00
2023-06-26T11:42:50.645Z,31.64
2023-06-26T11:45:22.156Z,30.70
2023-06-26T11:47:54.032Z,30.87
2023-06-26T11:50:25.560Z,31.22
2023-06-26T11:52:57.434Z,30.29
2023-06-26T11:55:28.938Z,31.12
2023-06-26T11:58:00.793Z,30.76
2023-06-26T12:00:32.290Z,29.98
2023-06-26T12:03:04.131Z,29.68
2023-06-26T12:05:35.753Z,31.29
2023-06-26T12:08:10.589Z,30.35
2023-06-26T12:10:42.494Z,30.69
2023-06-26T12:13:14.355Z,32.08
2023-06-26T12:15:46.272Z,32.44
2023-06-26T12:18:17.749Z,33.79
2023-06-26T12:20:49.596Z,32.93
2023-06-26T12:23:21.080Z,32.88
2023-06-26T12:25:52.866Z,33.52
2023-06-26T12:28:24.359Z,34.35
2023-06-26T12:30:55.854Z,33.44
2023-06-26T12:33:27.344Z,32.27
2023-06-26T12:35:59.148Z,31.46
2023-06-26T12:38:31.022Z,30.85
2023-06-26T12:41:02.730Z,29.89
2023-06-26T12:43:34.665Z,30.56
2023-06-26T12:46:06.233Z,32.17
2023-06-26T12:48:38.049Z,32.26
2023-06-26T12:51:09.558Z,32.31
2023-06-26T12:53:41.064Z,32.04
2023-06-26T12:56:12.626Z,32.21
2023-06-26T12:58:44.143Z,32.50
2023-06-26T13:01:15.774Z,32.93
2023-06-26T13:03:47.910Z,32.65
2023-06-26T13:06:19.499Z,31.89
2023-06-26T13:08:51.353Z,31.17
2023-06-26T13:11:24.896Z,33.23
2023-06-26T13:14:09.397Z,30.90
2023-06-26T13:16:43.005Z,32.48
2023-06-26T13:19:14.524Z,34.46
2023-06-26T13:21:46.044Z,32.74
2023-06-26T13:24:17.643Z,32.63
2023-06-26T13:26:49.447Z,33.53
2023-06-26T13:29:20.936Z,30.76
2023-06-26T13:31:52.803Z,32.69
2023-06-26T13:34:24.368Z,29.41
2023-06-26T13:36:56.259Z,30.29
2023-06-26T13:39:28.149Z,30.95
2023-06-26T13:41:59.663Z,30.93
2023-06-26T13:44:38.908Z,31.42
2023-06-26T13:47:19.595Z,31.64
2023-06-26T13:49:51.532Z,28.90
2023-06-26T13:52:23.039Z,29.45
2023-06-26T13:54:54.834Z,28.45
2023-06-26T13:57:26.346Z,28.84
2023-06-26T13:59:58.178Z,31.51
2023-06-26T14:02:30.066Z,32.59
2023-06-26T14:05:01.662Z,34.24
2023-06-26T14:07:33.694Z,35.04
2023-06-26T14:10:05.234Z,35.72
2023-06-26T14:12:37.105Z,35.81
2023-06-26T14:15:08.571Z,35.48
2023-06-26T14:17:40.421Z,35.87
2023-06-26T14:20:11.931Z,36.25
2023-06-26T14:22:43.461Z,36.49
2023-06-26T14:25:14.974Z,44.36
2023-06-26T14:27:46.834Z,51.67
2023-06-26T14:30:18.356Z,64.44
2023-06-26T14:32:50.294Z,74.32
2023-06-26T14:35:22.185Z,79.76
2023-06-26T14:37:53.707Z,80.97
2023-06-26T14:40:25.243Z,82.29
2023-06-26T14:42:56.960Z,84.91
2023-06-26T14:45:29.158Z,86.79
2023-06-26T14:48:01.206Z,89.89
2023-06-26T14:50:32.926Z,90.80
2023-06-26T14:53:04.505Z,93.41
2023-06-26T14:55:36.311Z,91.92
2023-06-26T14:58:07.804Z,92.36
2023-06-26T15:00:39.842Z,92.02
2023-06-26T15:03:11.952Z,92.40
2023-06-26T15:05:43.946Z,93.85
2023-06-26T15:08:15.649Z,94.03
2023-06-26T15:10:47.146Z,93.22
2023-06-26T15:13:18.682Z,91.41
2023-06-26T15:15:50.177Z,88.96
2023-06-26T15:18:21.998Z,90.29
2023-06-26T15:20:53.516Z,89.42
2023-06-26T15:23:25.221Z,87.58
2023-06-26T15:25:56.729Z,87.35
2023-06-26T15:28:28.585Z,85.85
2023-06-26T15:31:00.096Z,85.44
2023-06-26T15:33:31.814Z,84.55
2023-06-26T15:36:03.709Z,84.33
2023-06-26T15:38:35.183Z,84.30
2023-06-26T15:41:06.923Z,85.44
2023-06-26T15:43:38.467Z,84.87
2023-06-26T15:46:10.341Z,84.69
2023-06-26T15:48:42.217Z,84.48
2023-06-26T15:51:14.150Z,85.47
2023-06-26T15:53:45.661Z,86.40
2023-06-26T15:56:18.383Z,86.57
2023-06-26T15:58:49.997Z,84.89
2023-06-26T16:01:22.090Z,84.97
2023-06-26T16:03:53.917Z,85.30
2023-06-26T16:06:25.417Z,83.54
2023-06-26T16:08:57.264Z,81.79
2023-06-26T16:11:29.741Z,80.24
2023-06-26T16:14:01.281Z,80.04
2023-06-26T16:16:32.878Z,75.32
2023-06-26T16:19:04.545Z,74.85
2023-06-26T16:21:36.080Z,72.96
2023-06-26T16:24:07.876Z,74.40
2023-06-26T16:26:39.374Z,74.62
2023-06-26T16:29:13.134Z,75.00
2023-06-26T16:31:45.084Z,76.49
2023-06-26T16:34:17.057Z,76.49
2023-06-26T16:36:50.779Z,78.26
2023-06-26T16:39:22.622Z,77.70
2023-06-26T16:41:54.449Z,77.05
2023-06-26T16:44:25.981Z,77.92
2023-06-26T16:46:57.923Z,80.03
2023-06-26T16:49:29.432Z,79.92
2023-06-26T16:52:01.252Z,80.80
2023-06-26T16:54:32.742Z,81.09
2023-06-26T16:57:05.493Z,79.56
2023-06-26T16:59:36.977Z,79.89
2023-06-26T17:02:08.489Z,80.85
2023-06-26T17:04:40.172Z,78.99
2023-06-26T17:07:11.701Z,78.46
2023-06-26T17:09:43.676Z,78.83
2023-06-26T17:12:15.202Z,78.24
2023-06-26T17:14:46.734Z,77.05
2023-06-26T17:17:18.219Z,76.56
2023-06-26T17:19:49.753Z,74.46
2023-06-26T17:22:21.238Z,74.65
2023-06-26T17:24:53.107Z,74.55
2023-06-26T17:27:24.626Z,73.47
2023-06-26T17:29:56.309Z,72.98
2023-06-26T17:32:28.231Z,73.57
2023-06-26T17:35:00.271Z,73.42
2023-06-26T17:37:32.077Z,73.99
2023-06-26T17:40:03.560Z,74.23
2023-06-26T17:42:35.272Z,73.88
2023-06-26T17:45:06.764Z,74.02
2023-06-26T17:47:38.726Z,72.83
2023-06-26T17:50:10.387Z,72.30
2023-06-26T17:52:44.670Z,73.41
2023-06-26T17:55:16.176Z,72.86
2023-06-26T17:57:47.853Z,73.39
2023-06-26T18:00:19.571Z,72.75
2023-06-26T18:02:51.531Z,73.80
2023-06-26T18:05:23.380Z,74.45
2023-06-26T18:08:04.093Z,74.62
2023-06-26T18:10:37.160Z,74.52
2023-06-26T18:13:08.716Z,73.03
2023-06-26T18:15:40.389Z,72.33
2023-06-26T18:18:12.022Z,72.60
2023-06-26T18:20:43.636Z,72.89
2023-06-26T18:23:15.173Z,72.92
2023-06-26T18:25:47.224Z,73.42
2023-06-26T18:28:18.721Z,73.26
2023-06-26T18:30:50.704Z,73.46
2023-06-26T18:33:22.263Z,73.74
2023-06-26T18:35:53.857Z,73.64
2023-06-26T18:38:25.750Z,74.43
2023-06-26T18:40:57.235Z,74.12
2023-06-26T18:43:28.743Z,75.10
2023-06-26T18:46:00.289Z,75.77
2023-06-26T18:48:31.829Z,75.72
2023-06-26T18:51:03.345Z,75.71
2023-06-26T18:53:35.336Z,75.48
2023-06-26T18:56:06.834Z,75.61
2023-06-26T18:58:38.370Z,75.78
2023-06-26T19:01:09.989Z,76.40
2023-06-26T19:03:41.616Z,76.84
2023-06-26T19:06:13.418Z,76.72
2023-06-26T19:08:44.932Z,77.67
2023-06-26T19:11:16.449Z,78.86
2023-06-26T19:13:47.959Z,79.58
2023-06-26T19:16:19.791Z,80.29
2023-06-26T19:18:51.302Z,79.71
2023-06-26T19:21:23.178Z,75.41
2023-06-26T19:23:54.830Z,73.67
2023-06-26T19:26:26.658Z,69.27
2023-06-26T19:28:58.512Z,68.98
2023-06-26T19:31:30.013Z,69.26
2023-06-26T19:34:01.928Z,68.15
2023-06-26T19:36:33.421Z,68.27
2023-06-26T19:39:05.360Z,67.12
2023-06-26T19:41:36.913Z,68.29
2023-06-26T19:44:08.577Z,67.35
2023-06-26T19:46:40.173Z,65.97
2023-06-26T19:49:11.803Z,66.13
2023-06-26T19:51:43.648Z,65.88
2023-06-26T19:54:15.146Z,66.44
2023-06-26T19:56:46.939Z,63.88
2023-06-26T19:59:18.470Z,62.91
2023-06-26T20:01:50.466Z,60.51
2023-06-26T20:04:23.697Z,60.62
2023-06-26T20:06:55.515Z,59.87
2023-06-26T20:09:27.001Z,61.03
2023-06-26T20:11:58.698Z,58.82
2023-06-26T20:14:30.215Z,57.88
2023-06-26T20:17:02.159Z,56.58
2023-06-26T20:19:33.688Z,56.22
2023-06-26T20:22:05.241Z,55.64
2023-06-26T20:24:36.766Z,54.67
2023-06-26T20:27:08.554Z,56.00
2023-06-26T20:29:40.040Z,55.60
2023-06-26T20:32:11.852Z,55.27
2023-06-26T20:34:43.385Z,55.36
2023-06-26T20:37:15.228Z,55.69
2023-06-26T20:39:46.713Z,55.89
2023-06-26T20:42:18.532Z,55.64
2023-06-26T20:44:50.026Z,56.71
2023-06-26T20:47:21.752Z,57.40
2023-06-26T20:49:53.292Z,57.33
2023-06-26T20:52:25.245Z,57.43
2023-06-26T20:54:56.741Z,57.97
2023-06-26T20:57:28.781Z,58.60
2023-06-26T21:00:00.286Z,58.71
2023-06-26T21:02:31.892Z,59.31
2023-06-26T21:05:03.509Z,59.24
2023-06-26T21:07:35.582Z,59.42
2023-06-26T21:10:09.414Z,58.96
2023-06-26T21:12:41.587Z,58.76
2023-06-26T21:15:13.118Z,57.37
2023-06-26T21:17:44.899Z,58.80
2023-06-26T21:20:19.413Z,58.27
2023-06-26T21:22:51.135Z,57.56
2023-06-26T21:25:22.638Z,57.59
2023-06-26T21:27:54.411Z,56.19
2023-06-26T21:30:26.136Z,56.18
2023-06-26T21:32:58.007Z,55.07
2023-06-26T21:35:42.056Z,54.12
2023-06-26T21:38:15.185Z,54.15
2023-06-26T21:40:46.701Z,53.77
2023-06-26T21:43:18.418Z,53.23
2023-06-26T21:45:49.936Z,53.57
2023-06-26T21:48:21.709Z,53.74
2023-06-26T21:50:53.222Z,53.78
2023-06-26T21:53:24.952Z,53.25
2023-06-26T21:55:56.431Z,54.05
2023-06-26T21:58:28.192Z,53.44
2023-06-26T22:00:59.668Z,54.16
2023-06-26T22:03:31.443Z,54.04
2023-06-26T22:06:02.914Z,54.64
2023-06-26T22:08:34.887Z,55.71
2023-06-26T22:11:06.385Z,55.68
2023-06-26T22:13:38.277Z,55.70
2023-06-26T22:16:09.778Z,56.50
2023-06-26T22:18:41.567Z,56.62
2023-06-26T22:21:13.105Z,57.04
2023-06-26T22:23:44.932Z,57.19
2023-06-26T22:26:16.447Z,56.96
2023-06-26T22:28:48.274Z,57.70
2023-06-26T22:31:19.877Z,58.06
2023-06-26T22:33:51.631Z,58.04
2023-06-26T22:36:23.130Z,57.74
2023-06-26T22:38:55.069Z,58.21
2023-06-26T22:41:26.551Z,58.18
2023-06-26T22:43:58.391Z,58.38
2023-06-26T22:46:29.878Z,59.03
2023-06-26T22:49:01.623Z,58.34
2023-06-26T22:51:33.117Z,58.74
2023-06-26T22:54:04.792Z,58.96
2023-06-26T22:56:49.905Z,58.79
2023-06-26T22:59:26.076Z,59.94
2023-06-26T23:01:57.566Z,59.92
2023-06-26T23:04:29.459Z,60.36
2023-06-26T23:07:01.058Z,60.64
2023-06-26T23:09:33.003Z,60.83
2023-06-26T23:12:04.479Z,61.76
2023-06-26T23:14:36.665Z,60.96
2023-06-26T23:17:08.171Z,60.99
2023-06-26T23:19:40.004Z,61.58
2023-06-26T23:22:11.518Z,61.74
2023-06-26T23:24:43.205Z,62.21
2023-06-26T23:27:14.722Z,62.37
2023-06-26T23:29:46.627Z,62.55
2023-06-26T23:32:18.117Z,62.97
2023-06-26T23:34:49.886Z,63.20
2023-06-26T23:37:21.369Z,63.54
2023-06-26T23:39:53.183Z,64.12
2023-06-26T23:42:24.685Z,64.23
2023-06-26T23:44:56.460Z,64.42
2023-06-26T23:47:27.981Z,64.85
2023-06-26T23:50:00.053Z,65.22
2023-06-26T23:52:31.554Z,65.47
2023-06-26T23:55:03.365Z,66.06
2023-06-26T23:57:34.852Z,66.54
